createdAt,value
2022-09-22T00:09:32.703Z,5.30
2022-09-22T00:19:38.368Z,5.53
2022-09-22T00:29:42.575Z,6.03
2022-09-22T00:39:52.665Z,6.83
2022-09-22T00:50:14.646Z,7.45
2022-09-22T01:00:20.291Z,4.50
2022-09-22T01:10:24.226Z,4.68
2022-09-22T01:21:04.183Z,8.10
2022-09-22T01:31:16.082Z,5.60
2022-09-22T01:41:36.015Z,5.78
2022-09-22T01:51:45.913Z,7.22
2022-09-22T02:02:04.007Z,10.20
2022-09-22T02:12:06.010Z,8.07
2022-09-22T02:22:09.338Z,10.27
2022-09-22T02:32:16.186Z,12.47
2022-09-22T02:42:25.845Z,11.65
2022-09-22T02:52:28.975Z,10.40
2022-09-22T03:02:33.361Z,9.83
2022-09-22T03:12:36.056Z,11.45
2022-09-22T03:22:41.673Z,10.88
2022-09-22T03:32:43.324Z,12.05
2022-09-22T03:42:44.992Z,10.52
2022-09-22T03:52:47.061Z,15.77
2022-09-22T04:02:48.748Z,13.30
2022-09-22T04:12:50.433Z,34.30
2022-09-22T04:22:52.139Z,15.07
2022-09-22T04:32:55.159Z,14.73
2022-09-22T04:42:57.885Z,22.80
2022-09-22T04:52:59.737Z,11.75
2022-09-22T05:03:03.484Z,13.88
2022-09-22T05:23:11.189Z,20.85
2022-09-22T05:33:13.948Z,13.85
2022-09-22T05:43:16.728Z,14.77
2022-09-22T05:53:18.308Z,14.83
2022-09-22T06:03:19.884Z,24.20
2022-09-22T06:13:21.765Z,13.35
2022-09-22T06:23:26.012Z,11.88
2022-09-22T06:33:30.400Z,14.40
2022-09-22T06:43:37.973Z,9.75
2022-09-22T06:53:39.805Z,13.90
2022-09-22T07:03:45.730Z,13.88
2022-09-22T07:13:53.485Z,18.95
2022-09-22T07:23:56.465Z,11.85
2022-09-22T07:34:01.389Z,22.80
2022-09-22T07:44:22.369Z,15.65
2022-09-22T07:54:25.609Z,11.48
2022-09-22T08:04:31.139Z,7.22
2022-09-22T08:14:33.877Z,8.60
2022-09-22T08:24:37.327Z,4.03
2022-09-22T08:34:44.614Z,4.30
2022-09-22T08:45:09.526Z,10.00
2022-09-22T08:55:22.507Z,3.70
2022-09-22T09:05:50.074Z,7.47
2022-09-22T09:16:06.975Z,7.00
2022-09-22T09:26:08.642Z,15.23
2022-09-22T09:36:17.668Z,2.42
2022-09-22T09:46:26.709Z,3.65
2022-09-22T09:56:30.189Z,4.32
2022-09-22T10:06:32.061Z,3.08
2022-09-22T10:16:36.246Z,4.25
2022-09-22T10:26:52.105Z,3.10
2022-09-22T10:36:54.625Z,9.73
2022-09-22T10:47:27.247Z,5.57
2022-09-22T10:57:56.267Z,1.73
2022-09-22T11:08:26.710Z,1.95
2022-09-22T11:18:58.557Z,4.45
2022-09-22T11:29:10.810Z,6.50
2022-09-22T11:39:26.435Z,2.10
2022-09-22T11:49:46.628Z,4.88
2022-09-22T12:00:08.484Z,3.00
2022-09-22T12:10:23.034Z,4.75
2022-09-22T12:20:45.079Z,4.68
2022-09-22T12:41:08.252Z,2.45
2022-09-22T12:51:31.402Z,3.45
2022-09-22T13:01:34.810Z,4.85
2022-09-22T13:12:12.079Z,3.42
2022-09-22T13:22:20.700Z,3.08
2022-09-22T13:32:27.091Z,2.80
2022-09-22T13:42:34.237Z,5.30
2022-09-22T13:52:39.791Z,4.35
2022-09-22T14:02:44.525Z,3.22
2022-09-22T14:12:48.840Z,3.95
2022-09-22T14:22:50.556Z,3.58
2022-09-22T14:32:57.036Z,3.40
2022-09-22T14:43:09.662Z,5.43
2022-09-22T14:53:22.991Z,3.08
2022-09-22T15:03:29.619Z,3.60
2022-09-22T15:13:39.261Z,5.32
2022-09-22T15:23:45.088Z,5.78
2022-09-22T15:33:49.400Z,6.82
2022-09-22T15:43:52.613Z,5.13
2022-09-22T15:53:56.880Z,4.80
2022-09-22T16:04:00.428Z,4.45
2022-09-22T16:14:06.083Z,3.17
2022-09-22T16:24:10.229Z,17.75
2022-09-22T16:34:19.113Z,8.95
2022-09-22T16:44:22.103Z,8.00
2022-09-22T16:54:24.815Z,8.05
2022-09-22T17:14:37.085Z,12.20
2022-09-22T17:24:40.762Z,21.50
2022-09-22T17:34:42.451Z,22.38
2022-09-22T17:44:44.388Z,10.13
2022-09-22T17:55:04.587Z,9.10
2022-09-22T18:05:09.216Z,12.27
2022-09-22T18:15:13.438Z,11.90
2022-09-22T18:25:16.773Z,15.77
2022-09-22T18:45:20.539Z,10.65
2022-09-22T18:55:22.802Z,12.07
2022-09-22T19:05:27.682Z,12.73
2022-09-22T19:15:29.462Z,8.95
2022-09-22T19:25:32.644Z,7.93
2022-09-22T19:35:39.192Z,10.88
2022-09-22T19:45:41.293Z,14.77
2022-09-22T19:55:50.787Z,10.20
2022-09-22T20:05:52.946Z,11.88
2022-09-22T20:15:54.852Z,9.38
2022-09-22T20:26:03.835Z,8.52
2022-09-22T20:36:06.206Z,12.00
2022-09-22T20:46:09.446Z,11.55
2022-09-22T20:56:12.061Z,17.77
2022-09-22T21:06:17.045Z,14.93
2022-09-22T21:16:18.835Z,13.45
2022-09-22T21:26:20.953Z,18.88
2022-09-22T21:36:24.339Z,17.33
2022-09-22T21:46:29.633Z,19.95
2022-09-22T21:56:33.830Z,15.00
2022-09-22T22:06:43.138Z,16.85
2022-09-22T22:16:49.924Z,19.52
2022-09-22T22:26:54.806Z,17.95
2022-09-22T22:37:01.178Z,18.73
2022-09-22T22:47:05.443Z,17.25
2022-09-22T22:57:07.129Z,15.05
2022-09-22T23:07:08.801Z,17.75
2022-09-22T23:17:10.947Z,20.88
2022-09-22T23:27:21.892Z,17.17
2022-09-22T23:37:25.036Z,23.60
2022-09-22T23:47:28.959Z,17.10
2022-09-22T23:57:30.700Z,17.60
